sensor_id;sensor_type;location;lat;lon;timestamp;P1;durP1;ratioP1;P2;durP2;ratioP2
11228;SDS011;5671;47.936;8.716;2023-05-03T00:00:46;5.80;;;3.83;;
11228;SDS011;5671;47.936;8.716;2023-05-03T00:03:13;5.17;;;3.40;;
11228;SDS011;5671;47.936;8.716;2023-05-03T00:05:40;3.67;;;3.33;;
11228;SDS011;5671;47.936;8.716;2023-05-03T00:08:07;3.63;;;3.17;;
11228;SDS011;5671;47.936;8.716;2023-05-03T00:10:35;6.57;;;3.60;;
11228;SDS011;5671;47.936;8.716;2023-05-03T00:13:02;3.30;;;3.00;;
11228;SDS011;5671;47.936;8.716;2023-05-03T00:15:28;3.80;;;3.30;;
11228;SDS011;5671;47.936;8.716;2023-05-03T00:17:55;3.40;;;3.00;;
11228;SDS011;5671;47.936;8.716;2023-05-03T00:20:22;4.17;;;3.30;;
11228;SDS011;5671;47.936;8.716;2023-05-03T00:22:49;5.97;;;3.47;;
11228;SDS011;5671;47.936;8.716;2023-05-03T00:25:16;3.60;;;3.23;;
11228;SDS011;5671;47.936;8.716;2023-05-03T00:27:44;3.67;;;3.30;;
11228;SDS011;5671;47.936;8.716;2023-05-03T00:30:11;3.83;;;3.47;;
11228;SDS011;5671;47.936;8.716;2023-05-03T00:32:38;7.13;;;3.10;;
11228;SDS011;5671;47.936;8.716;2023-05-03T00:35:06;3.37;;;3.07;;
11228;SDS011;5671;47.936;8.716;2023-05-03T00:37:33;3.23;;;2.93;;
11228;SDS011;5671;47.936;8.716;2023-05-03T00:40:01;3.13;;;2.83;;
11228;SDS011;5671;47.936;8.716;2023-05-03T00:42:29;12.77;;;3.10;;
11228;SDS011;5671;47.936;8.716;2023-05-03T00:44:57;2.40;;;2.20;;
11228;SDS011;5671;47.936;8.716;2023-05-03T00:47:24;3.17;;;2.30;;
11228;SDS011;5671;47.936;8.716;2023-05-03T00:49:50;3.50;;;2.37;;
11228;SDS011;5671;47.936;8.716;2023-05-03T00:52:17;2.87;;;2.50;;
11228;SDS011;5671;47.936;8.716;2023-05-03T00:54:44;3.07;;;2.70;;
11228;SDS011;5671;47.936;8.716;2023-05-03T00:57:11;3.63;;;2.93;;
11228;SDS011;5671;47.936;8.716;2023-05-03T00:59:38;3.30;;;2.60;;
11228;SDS011;5671;47.936;8.716;2023-05-03T01:02:07;4.93;;;2.90;;
11228;SDS011;5671;47.936;8.716;2023-05-03T01:04:34;3.03;;;2.40;;
11228;SDS011;5671;47.936;8.716;2023-05-03T01:07:03;3.83;;;2.80;;
11228;SDS011;5671;47.936;8.716;2023-05-03T01:09:37;6.20;;;2.70;;
11228;SDS011;5671;47.936;8.716;2023-05-03T01:12:16;3.00;;;2.70;;
11228;SDS011;5671;47.936;8.716;2023-05-03T01:14:53;4.83;;;2.90;;
11228;SDS011;5671;47.936;8.716;2023-05-03T01:17:27;4.43;;;3.53;;
11228;SDS011;5671;47.936;8.716;2023-05-03T01:19:59;3.73;;;3.20;;
11228;SDS011;5671;47.936;8.716;2023-05-03T01:22:36;4.90;;;3.10;;
11228;SDS011;5671;47.936;8.716;2023-05-03T01:25:09;3.40;;;2.93;;
11228;SDS011;5671;47.936;8.716;2023-05-03T01:27:38;3.20;;;2.90;;
11228;SDS011;5671;47.936;8.716;2023-05-03T01:30:06;3.43;;;3.13;;
11228;SDS011;5671;47.936;8.716;2023-05-03T01:32:36;3.50;;;3.20;;
11228;SDS011;5671;47.936;8.716;2023-05-03T01:35:14;5.37;;;3.00;;
11228;SDS011;5671;47.936;8.716;2023-05-03T01:37:52;3.90;;;2.73;;
11228;SDS011;5671;47.936;8.716;2023-05-03T01:40:22;2.73;;;2.53;;
11228;SDS011;5671;47.936;8.716;2023-05-03T01:42:54;3.37;;;3.03;;
11228;SDS011;5671;47.936;8.716;2023-05-03T01:45:22;3.23;;;2.93;;
11228;SDS011;5671;47.936;8.716;2023-05-03T01:47:49;4.37;;;3.00;;
11228;SDS011;5671;47.936;8.716;2023-05-03T01:50:16;3.83;;;3.30;;
11228;SDS011;5671;47.936;8.716;2023-05-03T01:52:42;3.10;;;2.80;;
11228;SDS011;5671;47.936;8.716;2023-05-03T01:55:10;7.10;;;3.30;;
11228;SDS011;5671;47.936;8.716;2023-05-03T01:57:38;4.30;;;3.60;;
11228;SDS011;5671;47.936;8.716;2023-05-03T02:00:05;4.20;;;2.90;;
11228;SDS011;5671;47.936;8.716;2023-05-03T02:02:33;3.40;;;3.07;;
11228;SDS011;5671;47.936;8.716;2023-05-03T02:05:01;5.33;;;3.23;;
11228;SDS011;5671;47.936;8.716;2023-05-03T02:07:28;3.47;;;3.17;;
11228;SDS011;5671;47.936;8.716;2023-05-03T02:09:55;4.47;;;3.30;;
11228;SDS011;5671;47.936;8.716;2023-05-03T02:12:22;5.37;;;3.30;;
11228;SDS011;5671;47.936;8.716;2023-05-03T02:14:50;4.00;;;3.23;;
11228;SDS011;5671;47.936;8.716;2023-05-03T02:17:17;3.73;;;3.00;;
11228;SDS011;5671;47.936;8.716;2023-05-03T02:19:44;6.17;;;3.40;;
11228;SDS011;5671;47.936;8.716;2023-05-03T02:22:11;3.50;;;3.10;;
11228;SDS011;5671;47.936;8.716;2023-05-03T02:24:38;3.50;;;2.87;;
11228;SDS011;5671;47.936;8.716;2023-05-03T02:27:05;2.97;;;2.67;;
11228;SDS011;5671;47.936;8.716;2023-05-03T02:29:32;3.90;;;2.80;;
11228;SDS011;5671;47.936;8.716;2023-05-03T02:32:00;4.00;;;3.13;;
11228;SDS011;5671;47.936;8.716;2023-05-03T02:34:29;3.13;;;2.40;;
11228;SDS011;5671;47.936;8.716;2023-05-03T02:36:56;2.70;;;2.50;;
11228;SDS011;5671;47.936;8.716;2023-05-03T02:39:23;3.53;;;2.80;;
11228;SDS011;5671;47.936;8.716;2023-05-03T02:41:50;4.50;;;2.67;;
11228;SDS011;5671;47.936;8.716;2023-05-03T02:44:17;6.57;;;3.47;;
11228;SDS011;5671;47.936;8.716;2023-05-03T02:46:44;3.87;;;3.47;;
11228;SDS011;5671;47.936;8.716;2023-05-03T02:49:12;3.57;;;3.00;;
11228;SDS011;5671;47.936;8.716;2023-05-03T02:51:39;3.70;;;3.03;;
11228;SDS011;5671;47.936;8.716;2023-05-03T02:54:05;3.83;;;3.20;;
11228;SDS011;5671;47.936;8.716;2023-05-03T02:56:32;3.03;;;2.70;;
11228;SDS011;5671;47.936;8.716;2023-05-03T02:58:59;2.80;;;2.60;;
11228;SDS011;5671;47.936;8.716;2023-05-03T03:01:26;4.83;;;2.50;;
11228;SDS011;5671;47.936;8.716;2023-05-03T03:03:53;2.70;;;2.50;;
11228;SDS011;5671;47.936;8.716;2023-05-03T03:06:22;2.70;;;2.47;;
11228;SDS011;5671;47.936;8.716;2023-05-03T03:08:48;2.30;;;2.10;;
11228;SDS011;5671;47.936;8.716;2023-05-03T03:11:15;2.50;;;2.30;;
11228;SDS011;5671;47.936;8.716;2023-05-03T03:13:43;2.77;;;2.47;;
11228;SDS011;5671;47.936;8.716;2023-05-03T03:16:10;4.20;;;2.83;;
11228;SDS011;5671;47.936;8.716;2023-05-03T03:18:37;2.83;;;2.63;;
11228;SDS011;5671;47.936;8.716;2023-05-03T03:21:04;3.17;;;2.70;;
11228;SDS011;5671;47.936;8.716;2023-05-03T03:23:32;4.70;;;2.90;;
11228;SDS011;5671;47.936;8.716;2023-05-03T03:25:59;2.93;;;2.73;;
11228;SDS011;5671;47.936;8.716;2023-05-03T03:28:26;2.70;;;2.30;;
11228;SDS011;5671;47.936;8.716;2023-05-03T03:30:53;6.17;;;3.00;;
11228;SDS011;5671;47.936;8.716;2023-05-03T03:33:20;3.07;;;2.77;;
11228;SDS011;5671;47.936;8.716;2023-05-03T03:35:46;3.47;;;2.97;;
11228;SDS011;5671;47.936;8.716;2023-05-03T03:38:13;6.20;;;3.17;;
11228;SDS011;5671;47.936;8.716;2023-05-03T03:40:41;4.17;;;2.90;;
11228;SDS011;5671;47.936;8.716;2023-05-03T03:43:08;3.23;;;2.93;;
11228;SDS011;5671;47.936;8.716;2023-05-03T03:45:35;3.70;;;3.10;;
11228;SDS011;5671;47.936;8.716;2023-05-03T03:48:02;3.40;;;3.10;;
11228;SDS011;5671;47.936;8.716;2023-05-03T03:50:29;5.33;;;3.17;;
11228;SDS011;5671;47.936;8.716;2023-05-03T03:52:56;3.33;;;3.03;;
11228;SDS011;5671;47.936;8.716;2023-05-03T03:55:22;3.90;;;2.90;;
11228;SDS011;5671;47.936;8.716;2023-05-03T03:57:51;4.00;;;3.40;;
11228;SDS011;5671;47.936;8.716;2023-05-03T04:00:18;4.23;;;3.07;;
11228;SDS011;5671;47.936;8.716;2023-05-03T04:02:45;4.10;;;3.33;;
11228;SDS011;5671;47.936;8.716;2023-05-03T04:05:11;3.90;;;3.23;;
11228;SDS011;5671;47.936;8.716;2023-05-03T04:07:39;4.23;;;3.40;;
11228;SDS011;5671;47.936;8.716;2023-05-03T04:10:06;8.10;;;3.30;;
11228;SDS011;5671;47.936;8.716;2023-05-03T04:12:33;4.20;;;3.43;;
11228;SDS011;5671;47.936;8.716;2023-05-03T04:15:03;4.17;;;3.03;;
11228;SDS011;5671;47.936;8.716;2023-05-03T04:17:31;3.40;;;3.10;;
11228;SDS011;5671;47.936;8.716;2023-05-03T04:19:59;4.77;;;3.50;;
11228;SDS011;5671;47.936;8.716;2023-05-03T04:22:27;3.90;;;3.20;;
11228;SDS011;5671;47.936;8.716;2023-05-03T04:24:55;4.80;;;4.10;;
11228;SDS011;5671;47.936;8.716;2023-05-03T04:27:21;5.13;;;3.80;;
11228;SDS011;5671;47.936;8.716;2023-05-03T04:29:50;4.77;;;3.90;;
11228;SDS011;5671;47.936;8.716;2023-05-03T04:32:18;3.43;;;3.10;;
11228;SDS011;5671;47.936;8.716;2023-05-03T04:34:47;4.37;;;3.50;;
11228;SDS011;5671;47.936;8.716;2023-05-03T04:37:15;3.77;;;3.40;;
11228;SDS011;5671;47.936;8.716;2023-05-03T04:39:42;3.80;;;3.50;;
11228;SDS011;5671;47.936;8.716;2023-05-03T04:42:09;4.07;;;3.13;;
11228;SDS011;5671;47.936;8.716;2023-05-03T04:44:37;3.90;;;3.40;;
11228;SDS011;5671;47.936;8.716;2023-05-03T04:47:04;5.23;;;3.80;;
11228;SDS011;5671;47.936;8.716;2023-05-03T04:49:32;4.27;;;3.70;;
11228;SDS011;5671;47.936;8.716;2023-05-03T04:51:59;5.43;;;3.97;;
11228;SDS011;5671;47.936;8.716;2023-05-03T04:54:26;5.40;;;3.73;;
11228;SDS011;5671;47.936;8.716;2023-05-03T04:56:53;5.33;;;3.93;;
11228;SDS011;5671;47.936;8.716;2023-05-03T04:59:20;4.27;;;3.87;;
11228;SDS011;5671;47.936;8.716;2023-05-03T05:01:47;4.13;;;3.73;;
11228;SDS011;5671;47.936;8.716;2023-05-03T05:04:14;4.77;;;3.93;;
11228;SDS011;5671;47.936;8.716;2023-05-03T05:06:42;5.33;;;3.97;;
11228;SDS011;5671;47.936;8.716;2023-05-03T05:09:19;4.97;;;4.17;;
11228;SDS011;5671;47.936;8.716;2023-05-03T05:11:46;5.30;;;4.00;;
11228;SDS011;5671;47.936;8.716;2023-05-03T05:14:13;4.47;;;3.60;;
11228;SDS011;5671;47.936;8.716;2023-05-03T05:16:40;4.77;;;3.83;;
11228;SDS011;5671;47.936;8.716;2023-05-03T05:19:07;4.70;;;3.90;;
11228;SDS011;5671;47.936;8.716;2023-05-03T05:21:34;4.63;;;4.13;;
11228;SDS011;5671;47.936;8.716;2023-05-03T05:24:02;4.53;;;4.00;;
11228;SDS011;5671;47.936;8.716;2023-05-03T05:26:29;5.53;;;4.03;;
11228;SDS011;5671;47.936;8.716;2023-05-03T05:28:56;4.40;;;3.87;;
11228;SDS011;5671;47.936;8.716;2023-05-03T05:31:23;4.53;;;4.07;;
11228;SDS011;5671;47.936;8.716;2023-05-03T05:33:49;5.20;;;4.03;;
11228;SDS011;5671;47.936;8.716;2023-05-03T05:36:16;5.03;;;4.20;;
11228;SDS011;5671;47.936;8.716;2023-05-03T05:38:43;5.30;;;4.57;;
11228;SDS011;5671;47.936;8.716;2023-05-03T05:41:11;5.30;;;4.33;;
11228;SDS011;5671;47.936;8.716;2023-05-03T05:43:38;5.77;;;4.90;;
11228;SDS011;5671;47.936;8.716;2023-05-03T05:46:05;6.07;;;5.17;;
11228;SDS011;5671;47.936;8.716;2023-05-03T05:48:32;6.93;;;5.33;;
11228;SDS011;5671;47.936;8.716;2023-05-03T05:50:59;6.40;;;5.40;;
11228;SDS011;5671;47.936;8.716;2023-05-03T05:53:26;5.90;;;5.20;;
11228;SDS011;5671;47.936;8.716;2023-05-03T05:55:52;5.97;;;5.10;;
11228;SDS011;5671;47.936;8.716;2023-05-03T05:58:21;7.90;;;5.67;;
11228;SDS011;5671;47.936;8.716;2023-05-03T06:00:47;7.60;;;5.60;;
11228;SDS011;5671;47.936;8.716;2023-05-03T06:03:15;7.23;;;5.53;;
11228;SDS011;5671;47.936;8.716;2023-05-03T06:05:42;6.77;;;5.40;;
11228;SDS011;5671;47.936;8.716;2023-05-03T06:08:09;8.13;;;5.97;;
11228;SDS011;5671;47.936;8.716;2023-05-03T06:10:35;10.03;;;6.13;;
11228;SDS011;5671;47.936;8.716;2023-05-03T06:13:02;10.43;;;7.07;;
11228;SDS011;5671;47.936;8.716;2023-05-03T06:15:31;8.40;;;6.73;;
11228;SDS011;5671;47.936;8.716;2023-05-03T06:17:57;9.00;;;7.60;;
11228;SDS011;5671;47.936;8.716;2023-05-03T06:20:24;9.87;;;8.57;;
11228;SDS011;5671;47.936;8.716;2023-05-03T06:22:51;10.30;;;8.17;;
11228;SDS011;5671;47.936;8.716;2023-05-03T06:25:18;11.13;;;8.50;;
11228;SDS011;5671;47.936;8.716;2023-05-03T06:27:45;10.13;;;9.10;;
11228;SDS011;5671;47.936;8.716;2023-05-03T06:30:12;10.73;;;8.83;;
11228;SDS011;5671;47.936;8.716;2023-05-03T06:32:41;10.80;;;9.03;;
11228;SDS011;5671;47.936;8.716;2023-05-03T06:35:08;10.23;;;8.50;;
11228;SDS011;5671;47.936;8.716;2023-05-03T06:37:35;12.03;;;10.07;;
11228;SDS011;5671;47.936;8.716;2023-05-03T06:40:02;9.77;;;8.70;;
11228;SDS011;5671;47.936;8.716;2023-05-03T06:42:30;10.67;;;8.73;;
11228;SDS011;5671;47.936;8.716;2023-05-03T06:44:57;9.57;;;8.50;;
11228;SDS011;5671;47.936;8.716;2023-05-03T06:47:24;16.63;;;10.33;;
11228;SDS011;5671;47.936;8.716;2023-05-03T06:49:52;20.80;;;9.97;;
11228;SDS011;5671;47.936;8.716;2023-05-03T06:52:19;10.00;;;8.97;;
11228;SDS011;5671;47.936;8.716;2023-05-03T06:54:46;10.27;;;9.07;;
11228;SDS011;5671;47.936;8.716;2023-05-03T06:57:13;8.73;;;7.83;;
11228;SDS011;5671;47.936;8.716;2023-05-03T06:59:39;9.87;;;8.40;;
11228;SDS011;5671;47.936;8.716;2023-05-03T07:02:06;7.93;;;7.13;;
11228;SDS011;5671;47.936;8.716;2023-05-03T07:04:33;7.80;;;7.10;;
11228;SDS011;5671;47.936;8.716;2023-05-03T07:07:03;7.67;;;6.97;;
11228;SDS011;5671;47.936;8.716;2023-05-03T07:09:30;7.83;;;7.00;;
11228;SDS011;5671;47.936;8.716;2023-05-03T07:11:57;7.63;;;6.83;;
11228;SDS011;5671;47.936;8.716;2023-05-03T07:14:24;7.70;;;7.00;;
11228;SDS011;5671;47.936;8.716;2023-05-03T07:16:51;7.80;;;7.10;;
11228;SDS011;5671;47.936;8.716;2023-05-03T07:19:18;10.13;;;6.93;;
11228;SDS011;5671;47.936;8.716;2023-05-03T07:21:45;7.70;;;6.90;;
11228;SDS011;5671;47.936;8.716;2023-05-03T07:24:13;7.60;;;6.67;;
11228;SDS011;5671;47.936;8.716;2023-05-03T07:26:40;6.60;;;6.00;;
11228;SDS011;5671;47.936;8.716;2023-05-03T07:29:07;6.90;;;6.30;;
11228;SDS011;5671;47.936;8.716;2023-05-03T07:31:33;7.30;;;6.53;;
11228;SDS011;5671;47.936;8.716;2023-05-03T07:34:01;7.63;;;6.83;;
11228;SDS011;5671;47.936;8.716;2023-05-03T07:36:28;8.03;;;6.57;;
11228;SDS011;5671;47.936;8.716;2023-05-03T07:38:56;7.13;;;6.27;;
11228;SDS011;5671;47.936;8.716;2023-05-03T07:41:24;6.57;;;5.97;;
11228;SDS011;5671;47.936;8.716;2023-05-03T07:43:51;7.20;;;6.27;;
11228;SDS011;5671;47.936;8.716;2023-05-03T07:46:19;6.63;;;6.03;;
11228;SDS011;5671;47.936;8.716;2023-05-03T07:48:49;6.20;;;5.60;;
11228;SDS011;5671;47.936;8.716;2023-05-03T07:51:16;6.07;;;5.47;;
11228;SDS011;5671;47.936;8.716;2023-05-03T07:53:43;6.27;;;5.67;;
11228;SDS011;5671;47.936;8.716;2023-05-03T07:56:09;5.53;;;5.03;;
11228;SDS011;5671;47.936;8.716;2023-05-03T07:58:38;6.23;;;5.13;;
11228;SDS011;5671;47.936;8.716;2023-05-03T08:01:05;7.83;;;5.10;;
11228;SDS011;5671;47.936;8.716;2023-05-03T08:03:34;6.00;;;5.40;;
11228;SDS011;5671;47.936;8.716;2023-05-03T08:06:01;5.10;;;4.70;;
11228;SDS011;5671;47.936;8.716;2023-05-03T08:08:28;5.60;;;5.10;;
11228;SDS011;5671;47.936;8.716;2023-05-03T08:10:55;5.27;;;4.60;;
11228;SDS011;5671;47.936;8.716;2023-05-03T08:13:22;6.57;;;4.90;;
11228;SDS011;5671;47.936;8.716;2023-05-03T08:15:50;5.30;;;4.77;;
11228;SDS011;5671;47.936;8.716;2023-05-03T08:18:17;5.43;;;4.70;;
11228;SDS011;5671;47.936;8.716;2023-05-03T08:20:44;5.10;;;4.03;;
11228;SDS011;5671;47.936;8.716;2023-05-03T08:23:11;4.80;;;4.40;;
11228;SDS011;5671;47.936;8.716;2023-05-03T08:25:37;5.43;;;4.83;;
11228;SDS011;5671;47.936;8.716;2023-05-03T08:28:07;4.97;;;4.50;;
11228;SDS011;5671;47.936;8.716;2023-05-03T08:30:34;4.40;;;4.00;;
11228;SDS011;5671;47.936;8.716;2023-05-03T08:33:02;5.57;;;4.50;;
11228;SDS011;5671;47.936;8.716;2023-05-03T08:35:29;4.90;;;4.50;;
11228;SDS011;5671;47.936;8.716;2023-05-03T08:37:56;6.13;;;4.57;;
11228;SDS011;5671;47.936;8.716;2023-05-03T08:40:23;4.80;;;4.30;;
11228;SDS011;5671;47.936;8.716;2023-05-03T08:42:52;4.87;;;4.30;;
11228;SDS011;5671;47.936;8.716;2023-05-03T08:45:21;6.17;;;4.93;;
11228;SDS011;5671;47.936;8.716;2023-05-03T08:47:52;5.27;;;4.63;;
11228;SDS011;5671;47.936;8.716;2023-05-03T08:50:21;4.60;;;4.10;;
11228;SDS011;5671;47.936;8.716;2023-05-03T08:52:49;4.97;;;4.47;;
11228;SDS011;5671;47.936;8.716;2023-05-03T08:55:16;5.53;;;4.63;;
11228;SDS011;5671;47.936;8.716;2023-05-03T08:57:43;4.43;;;4.03;;
11228;SDS011;5671;47.936;8.716;2023-05-03T09:00:10;4.53;;;4.13;;
11228;SDS011;5671;47.936;8.716;2023-05-03T09:02:38;4.87;;;4.47;;
11228;SDS011;5671;47.936;8.716;2023-05-03T09:07:59;5.40;;;4.90;;
11228;SDS011;5671;47.936;8.716;2023-05-03T09:10:27;5.57;;;4.47;;
11228;SDS011;5671;47.936;8.716;2023-05-03T09:12:56;4.33;;;3.83;;
11228;SDS011;5671;47.936;8.716;2023-05-03T09:15:25;4.17;;;3.70;;
11228;SDS011;5671;47.936;8.716;2023-05-03T09:18:06;3.93;;;3.53;;
11228;SDS011;5671;47.936;8.716;2023-05-03T09:20:36;3.97;;;3.57;;
11228;SDS011;5671;47.936;8.716;2023-05-03T09:23:04;4.47;;;4.07;;
11228;SDS011;5671;47.936;8.716;2023-05-03T09:25:41;4.30;;;3.60;;
11228;SDS011;5671;47.936;8.716;2023-05-03T09:28:09;4.33;;;3.70;;
11228;SDS011;5671;47.936;8.716;2023-05-03T09:30:36;3.60;;;3.30;;
11228;SDS011;5671;47.936;8.716;2023-05-03T09:33:03;3.93;;;3.47;;
11228;SDS011;5671;47.936;8.716;2023-05-03T09:35:30;3.63;;;3.33;;
11228;SDS011;5671;47.936;8.716;2023-05-03T09:37:59;3.50;;;3.20;;
11228;SDS011;5671;47.936;8.716;2023-05-03T09:40:26;3.33;;;3.00;;
11228;SDS011;5671;47.936;8.716;2023-05-03T09:43:06;3.60;;;3.30;;
11228;SDS011;5671;47.936;8.716;2023-05-03T09:45:34;3.60;;;3.10;;
11228;SDS011;5671;47.936;8.716;2023-05-03T09:48:02;5.43;;;3.70;;
11228;SDS011;5671;47.936;8.716;2023-05-03T09:50:32;4.40;;;3.70;;
11228;SDS011;5671;47.936;8.716;2023-05-03T09:53:03;4.93;;;3.80;;
11228;SDS011;5671;47.936;8.716;2023-05-03T09:55:31;3.57;;;3.13;;
11228;SDS011;5671;47.936;8.716;2023-05-03T09:57:59;3.70;;;3.40;;
11228;SDS011;5671;47.936;8.716;2023-05-03T10:00:28;5.33;;;3.40;;
11228;SDS011;5671;47.936;8.716;2023-05-03T10:02:55;3.97;;;3.43;;
11228;SDS011;5671;47.936;8.716;2023-05-03T10:05:25;6.67;;;3.40;;
11228;SDS011;5671;47.936;8.716;2023-05-03T10:07:56;5.43;;;3.37;;
11228;SDS011;5671;47.936;8.716;2023-05-03T10:10:27;4.30;;;3.40;;
11228;SDS011;5671;47.936;8.716;2023-05-03T10:12:57;3.10;;;2.80;;
11228;SDS011;5671;47.936;8.716;2023-05-03T10:15:26;4.10;;;3.20;;
11228;SDS011;5671;47.936;8.716;2023-05-03T10:17:54;4.90;;;3.37;;
11228;SDS011;5671;47.936;8.716;2023-05-03T10:20:23;3.70;;;3.30;;
11228;SDS011;5671;47.936;8.716;2023-05-03T10:23:06;6.17;;;3.40;;
11228;SDS011;5671;47.936;8.716;2023-05-03T10:25:35;5.67;;;3.40;;
11228;SDS011;5671;47.936;8.716;2023-05-03T10:28:03;4.77;;;3.30;;
11228;SDS011;5671;47.936;8.716;2023-05-03T10:30:31;3.57;;;3.27;;
11228;SDS011;5671;47.936;8.716;2023-05-03T10:32:59;3.20;;;2.90;;
11228;SDS011;5671;47.936;8.716;2023-05-03T10:35:56;4.17;;;2.87;;
11228;SDS011;5671;47.936;8.716;2023-05-03T10:38:24;4.20;;;2.47;;
11228;SDS011;5671;47.936;8.716;2023-05-03T10:40:54;3.13;;;2.80;;
11228;SDS011;5671;47.936;8.716;2023-05-03T10:43:41;3.73;;;3.10;;
11228;SDS011;5671;47.936;8.716;2023-05-03T10:46:29;4.90;;;3.13;;
11228;SDS011;5671;47.936;8.716;2023-05-03T10:51:44;3.03;;;2.83;;
11228;SDS011;5671;47.936;8.716;2023-05-03T10:54:10;3.37;;;2.50;;
11228;SDS011;5671;47.936;8.716;2023-05-03T10:56:49;4.67;;;2.90;;
11228;SDS011;5671;47.936;8.716;2023-05-03T10:59:17;3.93;;;3.00;;
11228;SDS011;5671;47.936;8.716;2023-05-03T11:01:44;3.97;;;2.83;;
11228;SDS011;5671;47.936;8.716;2023-05-03T11:04:15;3.70;;;3.40;;
11228;SDS011;5671;47.936;8.716;2023-05-03T11:06:48;3.33;;;2.70;;
11228;SDS011;5671;47.936;8.716;2023-05-03T11:09:16;3.63;;;3.33;;
11228;SDS011;5671;47.936;8.716;2023-05-03T11:11:43;3.83;;;3.00;;
11228;SDS011;5671;47.936;8.716;2023-05-03T11:14:11;3.73;;;2.70;;
11228;SDS011;5671;47.936;8.716;2023-05-03T11:16:39;4.10;;;3.20;;
11228;SDS011;5671;47.936;8.716;2023-05-03T11:19:11;3.33;;;2.67;;
11228;SDS011;5671;47.936;8.716;2023-05-03T11:21:39;4.10;;;2.70;;
11228;SDS011;5671;47.936;8.716;2023-05-03T11:24:07;6.90;;;2.77;;
11228;SDS011;5671;47.936;8.716;2023-05-03T11:26:35;2.50;;;2.30;;
11228;SDS011;5671;47.936;8.716;2023-05-03T11:29:02;2.60;;;2.40;;
11228;SDS011;5671;47.936;8.716;2023-05-03T11:31:30;3.53;;;3.00;;
11228;SDS011;5671;47.936;8.716;2023-05-03T11:33:59;6.80;;;2.50;;
11228;SDS011;5671;47.936;8.716;2023-05-03T11:36:26;2.90;;;2.50;;
11228;SDS011;5671;47.936;8.716;2023-05-03T11:38:54;2.60;;;2.40;;
11228;SDS011;5671;47.936;8.716;2023-05-03T11:41:21;2.33;;;1.90;;
11228;SDS011;5671;47.936;8.716;2023-05-03T11:43:49;3.50;;;2.70;;
11228;SDS011;5671;47.936;8.716;2023-05-03T11:46:16;3.13;;;2.67;;
11228;SDS011;5671;47.936;8.716;2023-05-03T11:48:46;2.60;;;2.40;;
11228;SDS011;5671;47.936;8.716;2023-05-03T11:51:13;2.97;;;2.77;;
11228;SDS011;5671;47.936;8.716;2023-05-03T11:53:41;2.57;;;2.37;;
11228;SDS011;5671;47.936;8.716;2023-05-03T11:56:10;3.83;;;3.40;;
11228;SDS011;5671;47.936;8.716;2023-05-03T11:58:48;3.40;;;3.00;;
11228;SDS011;5671;47.936;8.716;2023-05-03T12:01:17;2.97;;;2.30;;
11228;SDS011;5671;47.936;8.716;2023-05-03T12:03:47;3.30;;;2.40;;
11228;SDS011;5671;47.936;8.716;2023-05-03T12:06:17;3.87;;;2.60;;
11228;SDS011;5671;47.936;8.716;2023-05-03T12:08:44;4.20;;;3.00;;
11228;SDS011;5671;47.936;8.716;2023-05-03T12:11:11;5.03;;;2.73;;
11228;SDS011;5671;47.936;8.716;2023-05-03T12:13:39;3.67;;;3.30;;
11228;SDS011;5671;47.936;8.716;2023-05-03T12:16:07;4.07;;;2.60;;
11228;SDS011;5671;47.936;8.716;2023-05-03T12:18:44;3.77;;;3.37;;
11228;SDS011;5671;47.936;8.716;2023-05-03T12:21:15;4.70;;;3.47;;
11228;SDS011;5671;47.936;8.716;2023-05-03T12:23:42;5.53;;;4.37;;
11228;SDS011;5671;47.936;8.716;2023-05-03T12:26:10;5.43;;;3.50;;
11228;SDS011;5671;47.936;8.716;2023-05-03T12:28:37;5.80;;;5.10;;
11228;SDS011;5671;47.936;8.716;2023-05-03T12:31:04;4.23;;;3.83;;
11228;SDS011;5671;47.936;8.716;2023-05-03T12:33:30;5.30;;;2.90;;
11228;SDS011;5671;47.936;8.716;2023-05-03T12:35:59;2.93;;;2.73;;
11228;SDS011;5671;47.936;8.716;2023-05-03T12:38:27;2.93;;;2.70;;
11228;SDS011;5671;47.936;8.716;2023-05-03T12:40:54;3.83;;;3.17;;
11228;SDS011;5671;47.936;8.716;2023-05-03T12:43:21;3.10;;;2.80;;
11228;SDS011;5671;47.936;8.716;2023-05-03T12:45:48;3.13;;;2.93;;
11228;SDS011;5671;47.936;8.716;2023-05-03T12:48:15;3.10;;;2.80;;
11228;SDS011;5671;47.936;8.716;2023-05-03T12:50:42;3.10;;;2.80;;
11228;SDS011;5671;47.936;8.716;2023-05-03T12:53:10;3.30;;;2.97;;
11228;SDS011;5671;47.936;8.716;2023-05-03T12:55:37;7.57;;;3.67;;
11228;SDS011;5671;47.936;8.716;2023-05-03T12:58:04;3.63;;;3.30;;
11228;SDS011;5671;47.936;8.716;2023-05-03T13:00:31;3.23;;;2.93;;
11228;SDS011;5671;47.936;8.716;2023-05-03T13:02:58;3.37;;;3.07;;
11228;SDS011;5671;47.936;8.716;2023-05-03T13:05:24;5.23;;;2.50;;
11228;SDS011;5671;47.936;8.716;2023-05-03T13:07:51;2.90;;;2.70;;
11228;SDS011;5671;47.936;8.716;2023-05-03T13:10:20;2.47;;;2.27;;
11228;SDS011;5671;47.936;8.716;2023-05-03T13:12:47;6.33;;;2.80;;
11228;SDS011;5671;47.936;8.716;2023-05-03T13:15:14;5.83;;;3.10;;
11228;SDS011;5671;47.936;8.716;2023-05-03T13:17:41;6.70;;;3.00;;
11228;SDS011;5671;47.936;8.716;2023-05-03T13:20:08;3.77;;;2.43;;
11228;SDS011;5671;47.936;8.716;2023-05-03T13:22:36;3.23;;;2.87;;
11228;SDS011;5671;47.936;8.716;2023-05-03T13:25:03;3.03;;;2.80;;
11228;SDS011;5671;47.936;8.716;2023-05-03T13:27:32;4.63;;;2.63;;
11228;SDS011;5671;47.936;8.716;2023-05-03T13:29:59;3.10;;;2.43;;
11228;SDS011;5671;47.936;8.716;2023-05-03T13:32:28;4.30;;;2.60;;
11228;SDS011;5671;47.936;8.716;2023-05-03T13:34:57;4.30;;;2.60;;
11228;SDS011;5671;47.936;8.716;2023-05-03T13:37:23;1.97;;;1.87;;
11228;SDS011;5671;47.936;8.716;2023-05-03T13:39:50;3.70;;;2.50;;
11228;SDS011;5671;47.936;8.716;2023-05-03T13:42:17;3.20;;;2.70;;
11228;SDS011;5671;47.936;8.716;2023-05-03T13:44:45;3.17;;;2.97;;
11228;SDS011;5671;47.936;8.716;2023-05-03T13:47:12;4.80;;;3.00;;
11228;SDS011;5671;47.936;8.716;2023-05-03T13:49:39;3.70;;;2.40;;
11228;SDS011;5671;47.936;8.716;2023-05-03T13:52:06;3.07;;;2.63;;
11228;SDS011;5671;47.936;8.716;2023-05-03T13:54:34;2.37;;;2.17;;
11228;SDS011;5671;47.936;8.716;2023-05-03T13:57:01;4.47;;;2.17;;
11228;SDS011;5671;47.936;8.716;2023-05-03T13:59:28;2.83;;;2.27;;
11228;SDS011;5671;47.936;8.716;2023-05-03T14:01:57;2.80;;;2.30;;
11228;SDS011;5671;47.936;8.716;2023-05-03T14:04:24;3.43;;;2.53;;
11228;SDS011;5671;47.936;8.716;2023-05-03T14:06:51;5.33;;;2.67;;
11228;SDS011;5671;47.936;8.716;2023-05-03T14:09:18;4.03;;;3.00;;
11228;SDS011;5671;47.936;8.716;2023-05-03T14:11:45;2.97;;;2.70;;
11228;SDS011;5671;47.936;8.716;2023-05-03T14:14:12;5.07;;;3.20;;
11228;SDS011;5671;47.936;8.716;2023-05-03T14:16:39;4.33;;;2.77;;
11228;SDS011;5671;47.936;8.716;2023-05-03T14:22:01;3.30;;;3.00;;
11228;SDS011;5671;47.936;8.716;2023-05-03T14:24:28;3.10;;;2.83;;
11228;SDS011;5671;47.936;8.716;2023-05-03T14:26:55;3.77;;;3.10;;
11228;SDS011;5671;47.936;8.716;2023-05-03T14:29:23;3.50;;;3.20;;
11228;SDS011;5671;47.936;8.716;2023-05-03T14:31:50;2.97;;;2.60;;
11228;SDS011;5671;47.936;8.716;2023-05-03T14:34:17;3.13;;;2.90;;
11228;SDS011;5671;47.936;8.716;2023-05-03T14:36:46;3.43;;;2.90;;
11228;SDS011;5671;47.936;8.716;2023-05-03T14:39:12;5.37;;;3.10;;
11228;SDS011;5671;47.936;8.716;2023-05-03T14:41:40;2.47;;;2.27;;
11228;SDS011;5671;47.936;8.716;2023-05-03T14:44:07;2.60;;;2.40;;
11228;SDS011;5671;47.936;8.716;2023-05-03T14:46:34;2.73;;;2.53;;
11228;SDS011;5671;47.936;8.716;2023-05-03T14:49:01;3.00;;;1.80;;
11228;SDS011;5671;47.936;8.716;2023-05-03T14:51:28;2.60;;;2.00;;
11228;SDS011;5671;47.936;8.716;2023-05-03T14:53:57;2.67;;;2.40;;
11228;SDS011;5671;47.936;8.716;2023-05-03T14:56:24;2.57;;;1.90;;
11228;SDS011;5671;47.936;8.716;2023-05-03T14:58:51;4.13;;;2.30;;
11228;SDS011;5671;47.936;8.716;2023-05-03T15:01:18;1.93;;;1.83;;
11228;SDS011;5671;47.936;8.716;2023-05-03T15:03:45;2.63;;;2.43;;
11228;SDS011;5671;47.936;8.716;2023-05-03T15:06:12;4.53;;;2.53;;
11228;SDS011;5671;47.936;8.716;2023-05-03T15:08:39;4.07;;;2.40;;
11228;SDS011;5671;47.936;8.716;2023-05-03T15:11:07;3.87;;;2.93;;
11228;SDS011;5671;47.936;8.716;2023-05-03T15:13:34;4.40;;;3.33;;